createdAt,value
2018-01-31T01:52:22.826Z,4.89
2018-01-31T01:53:22.743Z,4.89
2018-01-31T01:54:22.659Z,4.84
2018-01-31T01:55:22.575Z,4.87
2018-01-31T01:56:22.507Z,4.86
2018-01-31T01:57:22.410Z,4.80
2018-01-31T01:58:22.327Z,4.89
2018-01-31T01:59:22.240Z,4.89
2018-01-31T02:00:22.167Z,4.94
2018-01-31T02:01:22.076Z,4.87
2018-01-31T02:02:21.990Z,4.90
2018-01-31T02:03:21.907Z,4.93
2018-01-31T02:04:21.827Z,4.89
2018-01-31T02:05:21.741Z,4.86
2018-01-31T02:06:21.676Z,4.97
2018-01-31T02:07:21.570Z,4.97
2018-01-31T02:08:21.489Z,4.93
2018-01-31T02:09:21.404Z,5.00
2018-01-31T02:10:21.320Z,4.97
2018-01-31T02:11:21.237Z,4.89
2018-01-31T02:12:21.154Z,4.99
2018-01-31T02:13:21.070Z,4.96
2018-01-31T02:14:20.985Z,4.92
2018-01-31T02:15:20.911Z,4.97
2018-01-31T02:16:20.818Z,5.02
2018-01-31T02:17:20.736Z,4.92
2018-01-31T02:18:20.653Z,5.04
2018-01-31T02:19:20.568Z,4.94
2018-01-31T02:20:20.720Z,4.86
2018-01-31T02:21:20.401Z,4.89
2018-01-31T02:22:20.319Z,4.92
2018-01-31T02:23:20.234Z,4.89
2018-01-31T02:24:20.151Z,4.89
2018-01-31T02:25:20.068Z,4.87
2018-01-31T02:26:19.986Z,4.87
2018-01-31T02:27:19.902Z,4.82
2018-01-31T02:28:19.817Z,4.80
2018-01-31T02:29:19.735Z,4.87
2018-01-31T02:30:19.699Z,4.84
2018-01-31T02:31:19.574Z,4.80
2018-01-31T02:32:19.492Z,4.77
2018-01-31T02:33:19.399Z,4.78
2018-01-31T02:34:19.318Z,4.82
2018-01-31T02:35:19.228Z,4.92
2018-01-31T02:36:19.146Z,4.86
2018-01-31T02:37:19.076Z,4.78
2018-01-31T02:38:18.985Z,4.77
2018-01-31T02:39:18.895Z,4.92
2018-01-31T02:40:18.812Z,4.93
2018-01-31T02:41:18.728Z,4.82
2018-01-31T02:42:18.643Z,4.87
2018-01-31T02:43:18.563Z,4.86
2018-01-31T02:44:18.478Z,4.82
2018-01-31T02:45:18.394Z,4.82
2018-01-31T02:46:18.312Z,4.78
2018-01-31T02:47:18.224Z,4.87
2018-01-31T02:48:18.142Z,4.87
2018-01-31T02:49:18.071Z,4.82
2018-01-31T02:50:17.974Z,4.87
2018-01-31T02:51:17.893Z,4.89
2018-01-31T02:52:17.807Z,4.73
2018-01-31T02:53:17.723Z,4.74
2018-01-31T02:54:17.661Z,4.71
2018-01-31T02:55:17.553Z,4.74
2018-01-31T02:56:17.473Z,4.78
2018-01-31T02:57:17.392Z,4.71
2018-01-31T02:58:17.311Z,4.78
2018-01-31T02:59:17.223Z,4.82
2018-01-31T03:00:17.135Z,4.75
2018-01-31T03:01:17.055Z,4.78
2018-01-31T03:02:16.982Z,4.71
2018-01-31T03:03:16.886Z,4.77
2018-01-31T03:04:16.799Z,4.75
2018-01-31T03:05:16.719Z,4.78
2018-01-31T03:06:16.635Z,4.80
2018-01-31T03:07:16.552Z,4.75
2018-01-31T03:08:16.467Z,4.75
2018-01-31T03:09:16.382Z,4.82
2018-01-31T03:10:16.299Z,4.84
2018-01-31T03:11:16.214Z,4.78
2018-01-31T03:12:16.137Z,4.75
2018-01-31T03:13:16.061Z,4.70
2018-01-31T03:14:15.965Z,4.66
2018-01-31T03:15:15.880Z,4.71
2018-01-31T03:16:15.794Z,4.68
2018-01-31T03:17:15.710Z,4.63
2018-01-31T03:18:15.632Z,4.63
2018-01-31T03:19:15.545Z,4.49
2018-01-31T03:20:15.462Z,4.60
2018-01-31T03:21:15.374Z,4.58
2018-01-31T03:22:15.291Z,4.52
2018-01-31T03:23:15.215Z,4.60
2018-01-31T03:24:15.129Z,4.55
2018-01-31T03:25:15.040Z,4.53
2018-01-31T03:26:14.957Z,4.49
2018-01-31T03:27:14.873Z,4.48
2018-01-31T03:28:14.789Z,4.50
2018-01-31T03:29:14.705Z,4.52
2018-01-31T03:30:14.625Z,4.52
2018-01-31T03:31:14.550Z,4.45
2018-01-31T03:32:14.498Z,4.49
2018-01-31T03:33:14.370Z,4.42
2018-01-31T03:34:14.283Z,4.45
2018-01-31T03:35:14.200Z,4.41
2018-01-31T03:36:14.116Z,4.40
2018-01-31T03:37:14.033Z,4.41
2018-01-31T03:38:13.950Z,4.38
2018-01-31T03:39:13.866Z,4.40
2018-01-31T03:40:13.778Z,4.38
2018-01-31T03:41:13.704Z,4.42
2018-01-31T03:42:13.610Z,4.45
2018-01-31T03:43:13.526Z,4.42
2018-01-31T03:44:13.442Z,4.44
2018-01-31T03:45:13.395Z,4.41
2018-01-31T03:46:13.273Z,4.42
2018-01-31T03:47:13.191Z,4.42
2018-01-31T03:48:13.108Z,4.42
2018-01-31T03:49:13.023Z,4.38
2018-01-31T03:50:12.940Z,4.42
2018-01-31T03:51:12.853Z,4.44
2018-01-31T03:52:12.768Z,4.42
2018-01-31T03:53:12.710Z,4.40
2018-01-31T03:54:12.605Z,4.42
2018-01-31T03:55:12.517Z,4.38
2018-01-31T03:56:12.438Z,4.42
2018-01-31T03:57:12.350Z,4.37
2018-01-31T03:58:12.276Z,4.44
2018-01-31T03:59:12.180Z,4.45
2018-01-31T04:00:12.106Z,4.49
2018-01-31T04:01:12.011Z,4.52
2018-01-31T04:02:11.926Z,4.53
2018-01-31T04:03:11.841Z,4.49
2018-01-31T04:04:11.792Z,4.52
2018-01-31T04:05:11.676Z,4.55
2018-01-31T04:06:11.593Z,4.48
2018-01-31T04:07:11.508Z,4.48
2018-01-31T04:08:11.420Z,4.52
2018-01-31T04:09:11.340Z,4.41
2018-01-31T04:10:11.256Z,4.52
2018-01-31T04:11:11.173Z,4.48
2018-01-31T04:12:11.088Z,4.45
2018-01-31T04:13:11.005Z,4.45
2018-01-31T04:14:10.919Z,4.53
2018-01-31T04:15:10.833Z,4.58
2018-01-31T04:16:10.748Z,4.55
2018-01-31T04:17:10.665Z,4.49
2018-01-31T04:18:10.582Z,4.52
2018-01-31T04:19:10.497Z,4.50
2018-01-31T04:20:10.436Z,4.44
2018-01-31T04:21:10.333Z,4.50
2018-01-31T04:22:10.260Z,4.49
2018-01-31T04:23:10.160Z,4.56
2018-01-31T04:24:10.076Z,4.52
2018-01-31T04:25:10.005Z,4.50
2018-01-31T04:26:09.914Z,4.45
2018-01-31T04:27:09.822Z,4.48
2018-01-31T04:28:09.738Z,4.50
2018-01-31T04:29:09.654Z,4.48
2018-01-31T04:30:09.574Z,4.59
2018-01-31T04:31:09.488Z,4.52
2018-01-31T04:32:09.403Z,4.44
2018-01-31T04:33:09.323Z,4.52
2018-01-31T04:34:09.234Z,4.55
2018-01-31T04:35:09.150Z,4.56
2018-01-31T04:36:09.068Z,4.56
2018-01-31T04:37:08.991Z,4.55
2018-01-31T04:38:08.899Z,4.52
2018-01-31T04:39:08.817Z,4.62
2018-01-31T04:40:08.731Z,4.66
2018-01-31T04:41:08.668Z,4.62
2018-01-31T04:42:08.570Z,4.60
2018-01-31T04:43:08.486Z,4.55
2018-01-31T04:44:08.393Z,4.56
2018-01-31T04:45:08.310Z,4.59
2018-01-31T04:46:08.226Z,4.56
2018-01-31T04:47:08.222Z,4.58
2018-01-31T04:48:08.061Z,4.48
2018-01-31T04:49:07.974Z,4.41
2018-01-31T04:50:07.911Z,4.48
2018-01-31T04:51:07.805Z,4.42
2018-01-31T04:52:07.721Z,4.44
2018-01-31T04:53:07.637Z,4.42
2018-01-31T04:54:07.552Z,4.37
2018-01-31T04:55:07.468Z,4.41
2018-01-31T04:56:07.382Z,4.50
2018-01-31T04:57:07.298Z,4.48
2018-01-31T04:58:07.216Z,4.45
2018-01-31T04:59:07.163Z,4.42
2018-01-31T05:00:07.052Z,4.49
2018-01-31T05:01:06.965Z,4.50
2018-01-31T05:02:06.882Z,4.50
2018-01-31T05:03:06.794Z,4.45
2018-01-31T05:04:06.714Z,4.45
2018-01-31T05:05:06.626Z,4.50
2018-01-31T05:06:06.544Z,4.55
2018-01-31T05:07:06.463Z,4.58
2018-01-31T05:08:06.372Z,4.58
2018-01-31T05:09:06.300Z,4.60
2018-01-31T05:10:06.208Z,4.62
2018-01-31T05:11:06.130Z,4.58
2018-01-31T05:12:06.038Z,4.63
2018-01-31T05:13:05.955Z,4.66
2018-01-31T05:14:05.880Z,4.60
2018-01-31T05:15:05.786Z,4.68
2018-01-31T05:16:05.703Z,4.68
2018-01-31T05:17:05.618Z,4.71
2018-01-31T05:18:05.576Z,4.60
2018-01-31T05:19:05.449Z,4.62
2018-01-31T05:20:05.364Z,4.74
2018-01-31T05:21:05.281Z,4.66
2018-01-31T05:22:05.200Z,4.59
2018-01-31T05:23:05.112Z,4.60
2018-01-31T05:24:05.048Z,4.66
2018-01-31T05:25:04.943Z,4.66
2018-01-31T05:26:04.920Z,4.66
2018-01-31T05:27:04.792Z,4.66
2018-01-31T05:28:04.696Z,4.67
2018-01-31T05:29:04.610Z,4.67
2018-01-31T05:30:04.526Z,4.62
2018-01-31T05:31:04.442Z,4.60
2018-01-31T05:32:04.360Z,4.58
2018-01-31T05:33:04.273Z,4.66
2018-01-31T05:34:04.191Z,4.60
2018-01-31T05:35:04.127Z,4.62
2018-01-31T05:36:04.018Z,4.66
2018-01-31T05:37:03.934Z,4.62
2018-01-31T05:38:03.854Z,4.59
2018-01-31T05:39:03.766Z,4.66
2018-01-31T05:40:03.681Z,4.60
2018-01-31T05:41:03.634Z,4.63
2018-01-31T05:42:03.514Z,4.62
2018-01-31T05:43:03.429Z,4.56
2018-01-31T05:44:03.361Z,4.63
2018-01-31T05:45:03.268Z,4.62
2018-01-31T05:46:03.183Z,4.66
2018-01-31T05:47:03.093Z,4.60
2018-01-31T05:48:03.008Z,4.66
2018-01-31T05:49:02.925Z,4.63
2018-01-31T05:50:02.843Z,4.60
2018-01-31T05:51:02.762Z,4.63
2018-01-31T05:52:02.695Z,4.62
2018-01-31T05:53:02.628Z,4.67
2018-01-31T05:54:02.506Z,4.70
2018-01-31T05:55:02.421Z,4.60
2018-01-31T05:56:02.336Z,4.66
2018-01-31T05:57:02.253Z,4.62
2018-01-31T05:58:02.170Z,4.62
2018-01-31T05:59:02.083Z,4.58
2018-01-31T06:00:02.012Z,4.63
2018-01-31T06:01:01.935Z,4.58
2018-01-31T06:02:01.840Z,4.67
2018-01-31T06:03:01.754Z,4.60
2018-01-31T06:04:01.665Z,4.58
2018-01-31T06:05:01.579Z,4.58
2018-01-31T06:06:01.496Z,4.53
2018-01-31T06:07:01.415Z,4.52
2018-01-31T06:08:01.329Z,4.60
2018-01-31T06:09:01.244Z,4.60
2018-01-31T06:10:01.204Z,4.56
2018-01-31T06:11:01.076Z,4.56
2018-01-31T06:12:00.998Z,4.60
2018-01-31T06:13:00.905Z,4.63
2018-01-31T06:14:00.832Z,4.56
2018-01-31T06:15:00.744Z,4.68
2018-01-31T06:16:00.659Z,4.62
2018-01-31T06:17:00.569Z,4.67
2018-01-31T06:18:00.486Z,4.62
2018-01-31T06:19:00.425Z,4.60
2018-01-31T06:20:00.317Z,4.58
2018-01-31T06:21:00.236Z,4.63
2018-01-31T06:22:00.149Z,4.63
2018-01-31T06:23:00.068Z,4.58
2018-01-31T06:23:59.982Z,4.70
2018-01-31T06:24:59.896Z,4.67
2018-01-31T06:25:59.813Z,4.62
2018-01-31T06:26:59.731Z,4.66
2018-01-31T06:27:59.648Z,4.75
2018-01-31T06:28:59.560Z,4.66
2018-01-31T06:29:59.478Z,4.71
2018-01-31T06:30:59.392Z,4.74
2018-01-31T06:31:59.320Z,4.66
2018-01-31T06:32:59.229Z,4.86
2018-01-31T06:33:59.141Z,4.74
2018-01-31T06:34:59.060Z,4.75
2018-01-31T06:35:58.972Z,4.78
2018-01-31T06:36:58.905Z,4.78
2018-01-31T06:37:58.809Z,4.89
2018-01-31T06:38:58.727Z,4.80
2018-01-31T06:39:58.638Z,4.75
2018-01-31T06:40:58.553Z,4.84
2018-01-31T06:41:58.480Z,4.84
2018-01-31T06:42:58.387Z,4.84
2018-01-31T06:43:58.305Z,4.80
2018-01-31T06:44:58.237Z,4.78
2018-01-31T06:45:58.149Z,4.80
2018-01-31T06:46:58.058Z,4.66
2018-01-31T06:47:57.968Z,4.78
2018-01-31T06:48:57.884Z,4.74
2018-01-31T06:49:57.799Z,4.66
2018-01-31T06:50:57.715Z,4.82
2018-01-31T06:51:57.631Z,4.63
2018-01-31T06:52:57.546Z,4.63
2018-01-31T06:53:57.464Z,4.68
2018-01-31T06:54:57.377Z,4.63
2018-01-31T06:55:57.295Z,4.67
2018-01-31T06:56:57.212Z,4.71
2018-01-31T06:57:57.127Z,4.63
2018-01-31T06:58:57.041Z,4.67
2018-01-31T06:59:56.959Z,4.68
2018-01-31T07:00:56.882Z,4.63
2018-01-31T07:01:56.790Z,4.60
2018-01-31T07:02:56.709Z,4.63
2018-01-31T07:03:56.626Z,4.67
2018-01-31T07:04:56.540Z,4.70
2018-01-31T07:05:56.470Z,4.68
2018-01-31T07:06:56.370Z,4.70
2018-01-31T07:07:56.293Z,4.63
2018-01-31T07:08:56.204Z,4.66
2018-01-31T07:09:56.119Z,4.74
2018-01-31T07:10:56.036Z,4.78
2018-01-31T07:11:55.953Z,4.70
2018-01-31T07:12:55.865Z,4.66
2018-01-31T07:13:55.786Z,4.66
2018-01-31T07:14:55.711Z,4.63
2018-01-31T07:15:55.617Z,4.67
2018-01-31T07:16:55.534Z,4.66
2018-01-31T07:17:55.452Z,4.66
2018-01-31T07:18:55.364Z,4.75
2018-01-31T07:19:55.297Z,4.77
2018-01-31T07:20:55.196Z,4.80
2018-01-31T07:21:55.133Z,4.78
2018-01-31T07:22:55.027Z,4.75
2018-01-31T07:23:54.943Z,4.80
2018-01-31T07:24:54.859Z,4.77
2018-01-31T07:25:54.774Z,4.62
2018-01-31T07:26:54.691Z,4.74
2018-01-31T07:27:54.613Z,4.78
2018-01-31T07:28:54.546Z,4.77
2018-01-31T07:29:54.441Z,4.78
2018-01-31T07:30:54.356Z,4.78
2018-01-31T07:31:54.273Z,4.87
2018-01-31T07:32:54.186Z,4.86
2018-01-31T07:33:54.103Z,4.92
2018-01-31T07:34:54.019Z,4.93
2018-01-31T07:35:53.937Z,4.92
2018-01-31T07:36:53.865Z,4.89
2018-01-31T07:37:53.771Z,4.92
2018-01-31T07:38:53.684Z,4.92
2018-01-31T07:39:53.603Z,4.92
2018-01-31T07:40:53.516Z,4.87
2018-01-31T07:41:53.431Z,4.89
2018-01-31T07:42:53.350Z,4.96
2018-01-31T07:43:53.265Z,4.92
2018-01-31T07:44:53.181Z,4.97
2018-01-31T07:45:53.100Z,4.94
2018-01-31T07:46:53.034Z,4.96
2018-01-31T07:47:52.930Z,4.89
2018-01-31T07:48:52.847Z,4.87
2018-01-31T07:49:52.764Z,4.89
2018-01-31T07:50:52.678Z,4.86
2018-01-31T07:51:52.594Z,4.87
2018-01-31T07:52:52.542Z,4.97
2018-01-31T07:53:52.429Z,4.97
2018-01-31T07:54:52.346Z,5.00
2018-01-31T07:55:52.262Z,4.96
2018-01-31T07:56:52.195Z,5.05
2018-01-31T07:57:52.093Z,4.96
2018-01-31T07:58:52.010Z,5.05
2018-01-31T07:59:51.951Z,5.05
2018-01-31T08:00:51.842Z,5.08
2018-01-31T08:01:51.760Z,5.05
2018-01-31T08:02:51.726Z,5.00
2018-01-31T08:03:51.597Z,5.10
2018-01-31T08:04:51.533Z,5.11
2018-01-31T08:05:51.423Z,5.15
2018-01-31T08:06:51.339Z,5.21
2018-01-31T08:07:51.252Z,5.14
2018-01-31T08:08:51.174Z,5.18
2018-01-31T08:09:51.091Z,5.23
2018-01-31T08:10:51.003Z,5.17
2018-01-31T08:11:50.922Z,5.23
2018-01-31T08:12:50.836Z,5.29
2018-01-31T08:13:50.753Z,5.26
2018-01-31T08:14:50.670Z,5.28
2018-01-31T08:15:50.586Z,5.18
2018-01-31T08:16:50.503Z,5.14
2018-01-31T08:17:50.421Z,5.20
2018-01-31T08:18:50.336Z,5.21
2018-01-31T08:19:50.253Z,5.20
2018-01-31T08:20:50.174Z,5.17
2018-01-31T08:21:50.084Z,5.25
2018-01-31T08:22:50.007Z,5.23
2018-01-31T08:23:49.917Z,5.17
2018-01-31T08:24:49.839Z,5.25
2018-01-31T08:25:49.752Z,5.26
2018-01-31T08:26:49.665Z,5.30
2018-01-31T08:27:49.680Z,5.23
2018-01-31T08:28:49.499Z,5.20
2018-01-31T08:29:49.418Z,5.25
2018-01-31T08:30:49.335Z,5.21
2018-01-31T08:31:49.250Z,5.25
2018-01-31T08:32:49.167Z,5.25
2018-01-31T08:33:49.083Z,5.29
2018-01-31T08:34:49.005Z,5.30
2018-01-31T08:35:48.913Z,5.26
2018-01-31T08:36:48.832Z,5.39
2018-01-31T08:37:48.749Z,5.35
2018-01-31T08:38:48.664Z,5.32
2018-01-31T08:39:48.580Z,5.39
2018-01-31T08:40:48.497Z,5.26
2018-01-31T08:41:48.418Z,5.28
2018-01-31T08:42:48.333Z,5.35
2018-01-31T08:43:48.245Z,5.35
2018-01-31T08:44:48.165Z,5.33
2018-01-31T08:45:48.079Z,5.38
2018-01-31T08:46:48.005Z,5.39
2018-01-31T08:47:47.913Z,5.47
2018-01-31T08:48:47.840Z,5.47
2018-01-31T08:49:47.747Z,5.47
2018-01-31T08:50:47.663Z,5.53
2018-01-31T08:51:47.584Z,5.53
2018-01-31T08:52:47.495Z,5.51
2018-01-31T08:53:47.413Z,5.57
2018-01-31T08:54:47.345Z,5.53
2018-01-31T08:55:47.247Z,5.62
2018-01-31T08:56:47.164Z,5.61
2018-01-31T08:57:47.095Z,5.62
2018-01-31T08:58:46.999Z,5.66
2018-01-31T08:59:46.912Z,5.65
2018-01-31T09:00:46.843Z,5.80
2018-01-31T09:01:46.745Z,5.76
2018-01-31T09:02:46.666Z,5.72
2018-01-31T09:03:46.580Z,5.79
2018-01-31T09:04:46.499Z,5.86
2018-01-31T09:05:46.414Z,5.86
2018-01-31T09:06:46.334Z,5.89
2018-01-31T09:07:46.246Z,5.94
2018-01-31T09:08:46.170Z,5.90
2018-01-31T09:09:46.099Z,5.93
2018-01-31T09:10:45.997Z,6.01
2018-01-31T09:11:45.916Z,5.98
2018-01-31T09:12:45.858Z,5.91
2018-01-31T09:13:45.749Z,6.12
2018-01-31T09:14:45.666Z,6.05
2018-01-31T09:15:45.584Z,6.07
2018-01-31T09:16:45.500Z,6.11
2018-01-31T09:17:45.419Z,6.07
2018-01-31T09:18:45.336Z,6.17
2018-01-31T09:19:45.252Z,6.31
2018-01-31T09:20:45.180Z,6.22
2018-01-31T09:21:45.086Z,6.20
2018-01-31T09:22:45.015Z,6.30
2018-01-31T09:23:47.727Z,6.27
2018-01-31T09:24:44.839Z,6.27
2018-01-31T09:25:44.754Z,6.36
2018-01-31T09:26:44.673Z,6.39
2018-01-31T09:27:44.593Z,6.31
2018-01-31T09:28:44.509Z,6.49
2018-01-31T09:29:44.423Z,6.48
2018-01-31T09:30:44.343Z,6.49
2018-01-31T09:31:44.256Z,6.51
2018-01-31T09:32:44.176Z,6.54
2018-01-31T09:33:44.094Z,6.62
2018-01-31T09:34:44.010Z,6.59
2018-01-31T09:35:43.927Z,6.63
2018-01-31T09:36:43.848Z,6.66
2018-01-31T09:37:43.762Z,6.70
2018-01-31T09:38:43.692Z,6.74
2018-01-31T09:39:43.597Z,6.69
2018-01-31T09:40:43.514Z,6.79
2018-01-31T09:41:43.431Z,6.82
2018-01-31T09:42:43.347Z,6.85
2018-01-31T09:43:43.265Z,6.95
2018-01-31T09:44:43.186Z,6.99
2018-01-31T09:45:43.101Z,7.00
2018-01-31T09:46:43.018Z,6.99
2018-01-31T09:47:42.987Z,7.10
2018-01-31T09:48:42.854Z,7.13
2018-01-31T09:49:42.773Z,7.25
2018-01-31T09:50:42.700Z,7.29
2018-01-31T09:51:42.609Z,7.33
2018-01-31T09:52:42.528Z,7.28
2018-01-31T09:53:42.453Z,7.35
2018-01-31T09:54:42.360Z,7.35
2018-01-31T09:55:42.276Z,7.50
2018-01-31T09:56:42.213Z,7.60
2018-01-31T09:57:42.114Z,7.66
2018-01-31T09:58:42.031Z,7.58
2018-01-31T09:59:41.950Z,7.63
2018-01-31T10:00:41.869Z,7.76
2018-01-31T10:01:41.787Z,7.67
2018-01-31T10:02:41.707Z,7.79
2018-01-31T10:03:41.624Z,7.80
2018-01-31T10:04:41.555Z,7.94
2018-01-31T10:05:41.458Z,7.98
2018-01-31T10:06:41.375Z,8.00
2018-01-31T10:07:41.293Z,8.01
2018-01-31T10:08:41.215Z,8.15
2018-01-31T10:09:41.129Z,8.18
2018-01-31T10:10:41.046Z,8.10
2018-01-31T10:11:40.985Z,8.23
2018-01-31T10:12:40.888Z,8.33
2018-01-31T10:13:40.804Z,8.34
2018-01-31T10:14:40.729Z,8.31
2018-01-31T10:15:40.642Z,8.49
2018-01-31T10:16:40.557Z,8.58
2018-01-31T10:17:40.481Z,8.70
2018-01-31T10:18:40.413Z,8.76
2018-01-31T10:19:40.324Z,8.78
2018-01-31T10:20:40.238Z,8.76
2018-01-31T10:21:40.154Z,8.89
2018-01-31T10:22:40.093Z,8.78
2018-01-31T10:23:39.992Z,8.84
2018-01-31T10:24:39.929Z,8.85
2018-01-31T10:25:39.828Z,8.82
2018-01-31T10:26:39.764Z,8.84
2018-01-31T10:27:39.664Z,8.88
2018-01-31T10:28:39.584Z,8.88
2018-01-31T10:29:39.504Z,8.94
2018-01-31T10:30:39.424Z,8.94
2018-01-31T10:31:39.347Z,9.13
2018-01-31T10:32:39.265Z,9.03
2018-01-31T10:33:39.198Z,9.10
2018-01-31T10:34:39.098Z,9.08
2018-01-31T10:35:39.018Z,9.18
2018-01-31T10:36:38.940Z,9.23
2018-01-31T10:37:38.858Z,9.22
2018-01-31T10:38:38.776Z,9.22
2018-01-31T10:39:38.699Z,9.25
2018-01-31T10:40:38.617Z,9.25
2018-01-31T10:41:38.536Z,9.32
2018-01-31T10:42:38.455Z,9.28
2018-01-31T10:43:38.374Z,9.31
2018-01-31T10:44:38.293Z,9.37
2018-01-31T10:45:38.216Z,9.39
2018-01-31T10:46:38.137Z,9.43
2018-01-31T10:47:38.054Z,9.66
2018-01-31T10:48:37.975Z,9.98
2018-01-31T10:49:37.893Z,10.68
2018-01-31T10:50:37.811Z,11.12
2018-01-31T10:51:37.733Z,12.04
2018-01-31T10:52:37.657Z,12.83
2018-01-31T10:57:37.260Z,12.73
2018-01-31T10:58:37.181Z,12.85
2018-01-31T10:59:37.102Z,13.16
2018-01-31T11:00:37.028Z,13.33
2018-01-31T11:01:36.947Z,12.97
2018-01-31T11:02:36.870Z,12.68
2018-01-31T11:03:36.792Z,13.25
2018-01-31T11:04:36.715Z,14.03
2018-01-31T11:05:36.644Z,14.04
2018-01-31T11:06:36.558Z,13.50
2018-01-31T11:07:36.492Z,13.01
2018-01-31T11:08:36.404Z,12.65
2018-01-31T11:09:36.328Z,12.43
2018-01-31T11:10:36.254Z,12.09
2018-01-31T11:11:36.173Z,11.91
2018-01-31T11:12:36.098Z,11.75
2018-01-31T11:13:36.022Z,11.78
2018-01-31T11:14:35.944Z,11.69
2018-01-31T11:15:35.869Z,11.60
2018-01-31T11:16:35.800Z,11.41
2018-01-31T11:17:35.712Z,11.48
2018-01-31T11:18:35.634Z,11.50
2018-01-31T11:19:35.555Z,11.54
2018-01-31T11:20:35.478Z,11.47
2018-01-31T11:21:35.403Z,11.72
2018-01-31T11:22:35.322Z,11.94
2018-01-31T11:23:35.246Z,11.99
2018-01-31T11:24:35.170Z,12.12
2018-01-31T11:25:35.091Z,12.32
2018-01-31T11:26:35.012Z,12.25
2018-01-31T11:27:34.947Z,12.24
2018-01-31T11:28:34.860Z,12.40
2018-01-31T11:29:34.791Z,12.40
2018-01-31T11:30:34.705Z,12.24
2018-01-31T11:31:34.628Z,12.20
2018-01-31T11:32:34.551Z,12.24
2018-01-31T11:33:34.473Z,12.15
2018-01-31T11:34:34.394Z,11.94
2018-01-31T11:35:34.319Z,11.69
2018-01-31T11:36:34.241Z,11.62
2018-01-31T11:37:34.163Z,11.97
2018-01-31T11:38:34.099Z,11.97
2018-01-31T11:39:34.011Z,12.10
2018-01-31T11:40:33.932Z,12.76
2018-01-31T11:41:33.873Z,13.01
2018-01-31T11:42:33.779Z,12.87
2018-01-31T11:43:33.702Z,12.61
2018-01-31T11:44:33.622Z,12.75
2018-01-31T11:45:33.548Z,12.72
2018-01-31T11:46:33.470Z,12.65
2018-01-31T11:47:33.404Z,12.50
2018-01-31T11:48:33.321Z,12.58
2018-01-31T11:49:33.253Z,12.67
2018-01-31T11:50:33.170Z,12.54
2018-01-31T11:51:33.090Z,12.36
2018-01-31T11:52:33.014Z,12.28
2018-01-31T11:53:32.935Z,12.37
2018-01-31T11:54:32.856Z,12.15
2018-01-31T11:55:32.782Z,11.95
2018-01-31T11:56:32.708Z,11.77
2018-01-31T11:57:32.628Z,11.77
2018-01-31T11:58:32.551Z,11.69
2018-01-31T11:59:32.478Z,11.69
2018-01-31T12:00:32.413Z,11.70
2018-01-31T12:01:32.321Z,11.65
2018-01-31T12:02:32.247Z,11.68
2018-01-31T12:03:32.167Z,11.73
2018-01-31T12:04:32.103Z,11.80
2018-01-31T12:05:32.024Z,12.09
2018-01-31T12:06:31.937Z,12.24
2018-01-31T12:07:31.860Z,12.35
2018-01-31T12:08:31.782Z,12.35
2018-01-31T12:09:31.708Z,12.39
2018-01-31T12:10:31.636Z,12.20
2018-01-31T12:11:31.552Z,12.04
2018-01-31T12:12:31.475Z,11.91
2018-01-31T12:13:31.400Z,11.80
2018-01-31T12:14:31.321Z,11.81
2018-01-31T12:15:31.243Z,11.70
2018-01-31T12:16:31.184Z,11.77
2018-01-31T12:17:31.093Z,11.75
2018-01-31T12:18:31.012Z,11.81
2018-01-31T12:19:30.933Z,11.91
2018-01-31T12:20:30.861Z,12.21
2018-01-31T12:21:30.779Z,12.24
2018-01-31T12:22:30.707Z,12.25
2018-01-31T12:23:30.627Z,12.67
2018-01-31T12:24:30.561Z,12.45
2018-01-31T12:25:30.471Z,12.25
2018-01-31T12:26:30.396Z,11.94
2018-01-31T12:27:30.320Z,11.78
2018-01-31T12:28:30.242Z,11.65
2018-01-31T12:29:30.166Z,11.66
2018-01-31T12:30:30.086Z,11.68
2018-01-31T12:31:30.012Z,11.59
2018-01-31T12:32:29.936Z,11.77
2018-01-31T12:33:29.863Z,12.36
2018-01-31T12:34:29.776Z,13.74
2018-01-31T12:35:29.700Z,14.60
2018-01-31T12:36:29.621Z,15.54
2018-01-31T12:37:29.548Z,15.83
2018-01-31T12:38:29.474Z,16.31
2018-01-31T12:39:29.394Z,15.76
2018-01-31T12:40:29.319Z,15.44
2018-01-31T12:41:29.245Z,15.18
2018-01-31T12:42:29.167Z,14.91
2018-01-31T12:43:29.095Z,14.77
2018-01-31T12:44:29.018Z,14.33
2018-01-31T12:45:28.948Z,13.79
2018-01-31T12:46:28.868Z,13.57
2018-01-31T12:47:28.802Z,13.25
2018-01-31T12:48:28.740Z,13.22
2018-01-31T12:49:28.644Z,13.47
2018-01-31T12:50:28.571Z,13.89
2018-01-31T12:51:28.495Z,14.43
2018-01-31T12:52:28.424Z,14.25
2018-01-31T12:53:28.350Z,13.93
2018-01-31T12:54:28.273Z,13.79
2018-01-31T12:55:28.196Z,13.63
2018-01-31T12:56:28.121Z,13.46
2018-01-31T12:57:28.050Z,13.25
2018-01-31T12:58:27.971Z,13.11
2018-01-31T12:59:27.897Z,12.87
2018-01-31T13:00:27.822Z,12.64
2018-01-31T13:01:27.749Z,12.47
2018-01-31T13:02:27.694Z,12.36
2018-01-31T13:03:27.611Z,12.22
2018-01-31T13:04:27.521Z,11.99
2018-01-31T13:05:27.446Z,12.00
2018-01-31T13:06:27.373Z,11.75
2018-01-31T13:07:27.297Z,11.65
2018-01-31T13:08:27.220Z,11.47
2018-01-31T13:09:27.142Z,11.41
2018-01-31T13:10:27.067Z,11.29
2018-01-31T13:11:26.989Z,11.17
2018-01-31T13:12:26.912Z,11.19
2018-01-31T13:13:26.837Z,11.32
2018-01-31T13:14:26.757Z,11.19
2018-01-31T13:15:26.688Z,11.26
2018-01-31T13:16:26.607Z,11.18
2018-01-31T13:17:26.529Z,11.35
2018-01-31T13:18:41.280Z,11.54
2018-01-31T13:19:26.370Z,11.80
2018-01-31T13:20:26.307Z,11.80
2018-01-31T13:21:26.221Z,11.99
2018-01-31T13:22:26.140Z,12.07
2018-01-31T13:23:26.061Z,12.28
2018-01-31T13:24:25.996Z,12.40
2018-01-31T13:25:25.942Z,12.39
2018-01-31T13:26:25.832Z,12.36
2018-01-31T13:27:25.751Z,12.35
2018-01-31T13:28:25.675Z,12.36
2018-01-31T13:29:25.598Z,12.27
2018-01-31T13:30:25.532Z,12.25
2018-01-31T13:31:25.446Z,12.32
2018-01-31T13:32:25.365Z,12.40
2018-01-31T13:33:25.289Z,12.37
2018-01-31T13:34:25.214Z,12.47
2018-01-31T13:35:25.152Z,12.53
2018-01-31T13:36:25.059Z,12.49
2018-01-31T13:37:24.983Z,12.57
2018-01-31T13:38:24.904Z,12.35
2018-01-31T13:39:24.830Z,12.28
2018-01-31T13:40:24.753Z,12.24
2018-01-31T13:41:24.673Z,12.22
2018-01-31T13:42:24.595Z,12.20
2018-01-31T13:43:24.520Z,12.12
2018-01-31T13:44:24.442Z,12.04
2018-01-31T13:45:24.364Z,12.00
2018-01-31T13:46:24.306Z,11.97
2018-01-31T13:47:24.224Z,11.94
2018-01-31T13:48:24.135Z,11.81
2018-01-31T13:49:24.058Z,11.84
2018-01-31T13:50:23.977Z,11.69
2018-01-31T13:51:23.901Z,11.68
2018-01-31T13:52:23.829Z,11.68
2018-01-31T13:53:23.747Z,11.57
2018-01-31T13:54:23.698Z,11.57
2018-01-31T13:55:23.595Z,11.51
2018-01-31T13:56:23.526Z,11.52
2018-01-31T13:57:23.441Z,11.51
2018-01-31T13:58:23.377Z,11.44
2018-01-31T13:59:23.279Z,11.41
2018-01-31T14:00:23.203Z,11.37
2018-01-31T14:01:23.124Z,11.41
2018-01-31T14:02:23.044Z,11.32
2018-01-31T14:03:22.984Z,11.35
2018-01-31T14:04:22.889Z,11.32
2018-01-31T14:05:22.814Z,11.29
2018-01-31T14:06:22.731Z,11.29
2018-01-31T14:07:22.653Z,11.30
2018-01-31T14:08:22.577Z,11.30
2018-01-31T14:09:22.500Z,11.22
2018-01-31T14:10:22.417Z,11.26
2018-01-31T14:11:22.338Z,11.25
2018-01-31T14:12:22.262Z,11.27
2018-01-31T14:13:22.192Z,11.23
2018-01-31T14:14:22.103Z,11.22
2018-01-31T14:15:22.026Z,11.29
2018-01-31T14:16:21.976Z,11.18
2018-01-31T14:17:21.871Z,11.15
2018-01-31T14:18:21.791Z,11.15
2018-01-31T14:19:21.713Z,11.07
2018-01-31T14:20:21.633Z,11.15
2018-01-31T14:21:21.554Z,11.15
2018-01-31T14:22:21.474Z,11.11
2018-01-31T14:23:21.397Z,11.08
2018-01-31T14:24:21.323Z,11.12
2018-01-31T14:25:21.238Z,11.05
2018-01-31T14:26:21.163Z,11.14
2018-01-31T14:27:21.083Z,11.11
2018-01-31T14:28:21.003Z,11.12
2018-01-31T14:29:20.925Z,11.15
2018-01-31T14:30:20.845Z,11.10
2018-01-31T14:31:20.768Z,11.17
2018-01-31T14:32:20.715Z,11.15
2018-01-31T14:33:20.629Z,11.11
2018-01-31T14:34:20.530Z,11.14
2018-01-31T14:35:20.456Z,11.15
2018-01-31T14:36:20.372Z,11.12
2018-01-31T14:37:20.292Z,11.14
2018-01-31T14:38:20.213Z,11.12
2018-01-31T14:39:20.137Z,11.08
2018-01-31T14:40:20.067Z,11.11
2018-01-31T14:41:19.981Z,11.08
2018-01-31T14:42:19.932Z,11.10
2018-01-31T14:43:19.820Z,10.96
2018-01-31T14:44:19.744Z,11.07
2018-01-31T14:45:19.664Z,11.00
2018-01-31T14:46:19.582Z,10.99
2018-01-31T14:47:19.504Z,11.04
2018-01-31T14:48:19.428Z,11.00
2018-01-31T14:49:19.345Z,10.99
2018-01-31T14:50:19.266Z,11.04
2018-01-31T14:51:19.189Z,11.05
2018-01-31T14:52:19.124Z,11.04
2018-01-31T14:53:19.031Z,10.99
2018-01-31T14:54:18.952Z,11.07
2018-01-31T14:55:18.873Z,10.97
2018-01-31T14:56:18.791Z,11.00
2018-01-31T14:57:18.714Z,11.02
2018-01-31T14:58:18.637Z,11.04
2018-01-31T14:59:18.568Z,11.00
2018-01-31T15:00:18.478Z,11.04
2018-01-31T15:01:18.397Z,11.02
2018-01-31T15:02:18.319Z,11.00
2018-01-31T15:03:18.242Z,11.04
2018-01-31T15:04:18.169Z,10.93
2018-01-31T15:05:18.082Z,10.90